Eilat, Israel

9:50 AM IDT on October 23, 2014 (GMT +0300)
Eilat | Change Station
CLOSE
Current Station
Airport
Location: Eilat,
Elevation: 39 ft
Nearby Weather Stations

Elev 39 ft 29.56 °N, 34.96 °E | Updated 1 hour ago

Clear
Clear
75 °F
Feels Like 75 °F
N
5
Wind Variable Wind from East

Today
High -- | Low -- °F
--% Chance of Precip.
Yesterday
High -- | Low -- °F
Precip. -- in
6:46 AM 6:01 PM
Waning Crescent, 0% visible
Pressure 30.04 in
Visibility -9999.0 miles
Clouds
Dew Point 54 °F
Humidity 47%
Rainfall 0.00 in
Snow Depth Not available.
UV Not available.
Pollen Not available.
Air Quality Not available.
Flu Activity Not available.
METAR LLET 230550Z 08004KT CAVOK 24/12 Q1017

More Conditions Fewer Conditions

Pressure 30.04 in
Visibility -9999.0 miles
Clouds
Dew Point 54 °F
Humidity 47%
Rainfall 0.00 in
Snow Depth Not available.
UV Not available.
Pollen Not available.
Air Quality Not available.
Flu Activity Not available.
METAR LLET 230550Z 08004KT CAVOK 24/12 Q1017

More Conditions Fewer Conditions

10-Day Weather Forecast

Almanac

Astronomy

Oct. 23, 2014 Rise Set
Actual Time 6:46 AM IDT 6:01 PM IDT
Civil Twilight 6:22 AM IDT 6:26 PM IDT
Nautical Twilight 5:54 AM IDT 6:53 PM IDT
Astronomical Twilight 5:26 AM IDT 7:21 PM IDT
Moon 6:09 AM IDT 5:49 PM IDT
Length of Visible Light 12h 03m
Length of Day
11h 15m
Tomorrow will be 1m 38s shorter.
Waning Crescent, 0% of the Moon is Illuminated
Today
Waning Crescent
Oct 23
New
Oct 30
First Quarter
Nov 6
Full
Nov 14
Last Quarter

Yesterday's Extremes

Country Highs Country Lows

Community

WunderPhotos

Upload Photos

1,764,194 photos uploaded!

Nearby

Snow Depth

Not available.

Earthquake Activity

City Distance Mag. Time & Date
No recent earthquake activity has been reported nearby.
Minimum magnitude displayed is 2.5.

Coastal Water Temperatures

Place Temperature
No Stations Reporting

Nearby Weather Stations